Time;durP1;ratioP1;P1;durP2;ratioP2;P2;SDS_P1;SDS_P2;PMS_P1;PMS_P2;Temp;Humidity;BMP_temperature;BMP_pressure;BME280_temperature;BME280_humidity;BME280_pressure;Samples;Min_cycle;Max_cycle;Signal;HPM_P1;HPM_P2
2022/06/16 00:00:35;;;;;;;5.40;4.47;;;;;;;21.08;nan;99390.94;4991678;28;20221;-73
2022/06/16 00:03:07;;;;;;;4.80;4.40;;;;;;;21.04;nan;99397.63;5002090;28;20492;-72
2022/06/16 00:05:36;;;;;;;4.47;4.07;;;;;;;21.02;nan;99393.47;5002939;28;20468;-71
2022/06/16 00:08:03;;;;;;;5.40;4.50;;;;;;;21.00;nan;99391.78;4999268;28;20632;-72
2022/06/16 00:10:29;;;;;;;5.63;4.63;;;;;;;20.98;nan;99388.47;5003086;28;20810;-73
2022/06/16 00:12:58;;;;;;;4.60;3.77;;;;;;;20.91;nan;99387.47;4993581;28;20990;-72
2022/06/16 00:15:27;;;;;;;6.60;4.43;;;;;;;20.81;nan;99381.47;5000607;28;20197;-72
2022/06/16 00:17:53;;;;;;;4.93;4.30;;;;;;;20.71;nan;99383.47;5004866;28;20454;-71
2022/06/16 00:20:19;;;;;;;4.67;4.00;;;;;;;20.62;nan;99376.50;5003090;28;20462;-72
2022/06/16 00:22:45;;;;;;;4.53;4.10;;;;;;;20.50;nan;99367.97;4995229;28;20764;-72
2022/06/16 00:25:11;;;;;;;7.53;5.47;;;;;;;20.41;nan;99367.13;5002582;28;20236;-72
2022/06/16 00:27:36;;;;;;;6.13;4.40;;;;;;;20.37;nan;99371.13;4997452;28;20711;-71
2022/06/16 00:30:07;;;;;;;5.27;4.77;;;;;;;20.32;nan;99371.63;5004338;28;20542;-72
2022/06/16 00:32:42;;;;;;;5.30;4.80;;;;;;;20.31;nan;99367.31;4998937;28;20914;-72
2022/06/16 00:35:18;;;;;;;7.20;5.20;;;;;;;20.21;nan;99361.28;4988246;28;20316;-72
2022/06/16 00:38:30;;;;;;;5.43;4.93;;;;;;;20.08;nan;99356.44;4997526;28;20449;-71
2022/06/16 00:41:23;;;;;;;5.20;4.70;;;;;;;20.01;nan;99358.09;5006128;28;20456;-72
2022/06/16 00:43:58;;;;;;;4.50;4.17;;;;;;;20.00;nan;99355.59;5003336;28;20482;-72
2022/06/16 00:46:28;;;;;;;5.93;4.63;;;;;;;19.99;nan;99354.78;5000436;28;20708;-72
2022/06/16 00:49:15;;;;;;;8.67;5.30;;;;;;;19.97;nan;99367.41;4996374;28;20586;-72
2022/06/16 00:52:12;;;;;;;7.27;5.80;;;;;;;19.93;nan;99368.75;4998710;28;20431;-72
2022/06/16 00:54:51;;;;;;;6.00;4.90;;;;;;;19.93;nan;99370.56;4984774;28;21036;-73
2022/06/16 00:57:27;;;;;;;5.73;4.00;;;;;;;19.92;nan;99356.41;4979161;28;20459;-73
2022/06/16 00:59:55;;;;;;;5.57;5.07;;;;;;;19.92;nan;99353.75;5000621;28;20934;-73
2022/06/16 01:02:25;;;;;;;5.23;4.73;;;;;;;19.93;nan;99375.91;4991352;28;20470;-73
2022/06/16 01:04:54;;;;;;;6.53;5.17;;;;;;;19.86;nan;99368.56;4984662;28;20470;-72
2022/06/16 01:07:30;;;;;;;5.20;4.70;;;;;;;19.77;nan;99376.72;4984147;28;20485;-72
2022/06/16 01:09:57;;;;;;;6.70;5.97;;;;;;;19.64;nan;99361.97;4983765;28;20463;-73
2022/06/16 01:15:37;;;;;;;6.47;5.87;;;;;;;19.68;nan;99378.50;4983007;28;20462;-72
2022/06/16 01:18:34;;;;;;;5.83;5.03;;;;;;;19.66;nan;99376.00;4994769;28;20942;-72
2022/06/16 01:21:15;;;;;;;6.13;5.63;;;;;;;19.65;nan;99390.28;4996457;28;20522;-72
2022/06/16 01:24:12;;;;;;;7.30;6.23;;;;;;;19.65;nan;99384.97;4985608;28;20572;-72
2022/06/16 01:26:53;;;;;;;6.60;5.73;;;;;;;19.60;nan;99373.94;4959031;28;20872;-72
2022/06/16 01:29:34;;;;;;;6.60;4.80;;;;;;;19.60;nan;99365.94;4987007;28;20461;-72
2022/06/16 01:32:05;;;;;;;6.20;5.60;;;;;;;19.61;nan;99370.31;4994167;28;20460;-72
2022/06/16 01:34:42;;;;;;;7.33;5.63;;;;;;;19.64;nan;99396.63;4971457;28;20480;-72
2022/06/16 01:37:39;;;;;;;5.50;5.00;;;;;;;19.69;nan;99401.50;4973421;28;20480;-72
2022/06/16 01:40:11;;;;;;;9.03;7.40;;;;;;;19.73;nan;99396.69;4980459;28;20467;-72
2022/06/16 01:42:49;;;;;;;6.13;5.63;;;;;;;19.75;nan;99384.03;4970159;28;20495;-72
2022/06/16 01:45:39;;;;;;;6.80;6.10;;;;;;;19.79;nan;99412.84;4966514;28;20454;-71
2022/06/16 01:48:11;;;;;;;8.53;5.70;;;;;;;19.85;nan;99440.72;4963305;28;20493;-73
2022/06/16 01:50:48;;;;;;;6.93;6.17;;;;;;;19.90;nan;99435.69;4970304;28;20494;-72
2022/06/16 01:53:40;;;;;;;7.30;5.87;;;;;;;19.89;nan;99423.38;4972079;28;20492;-73
2022/06/16 01:56:15;;;;;;;7.30;6.70;;;;;;;19.71;nan;99425.31;4985284;28;20525;-73
2022/06/16 01:58:45;;;;;;;9.70;7.13;;;;;;;19.55;nan;99429.56;4968551;28;20449;-73
2022/06/16 02:01:15;;;;;;;9.20;6.90;;;;;;;19.42;nan;99413.19;4965471;28;20448;-73
2022/06/16 02:03:52;;;;;;;7.77;6.87;;;;;;;19.33;nan;99404.28;4947672;28;20473;-72
2022/06/16 02:06:25;;;;;;;8.13;7.20;;;;;;;19.29;nan;99399.47;4995742;28;20459;-73
2022/06/16 02:08:59;;;;;;;9.97;8.97;;;;;;;19.26;nan;99410.44;4975418;28;20569;-72
2022/06/16 02:11:29;;;;;;;10.20;7.90;;;;;;;19.13;nan;99401.03;4998078;28;20511;-72
2022/06/16 02:14:00;;;;;;;9.33;7.97;;;;;;;19.00;nan;99388.13;4988447;28;20607;-72
2022/06/16 02:16:34;;;;;;;11.30;7.10;;;;;;;18.81;nan;99396.34;5004559;28;20515;-72
2022/06/16 02:19:02;;;;;;;9.23;7.87;;;;;;;18.69;nan;99402.88;5004947;28;20587;-72
2022/06/16 02:21:37;;;;;;;7.50;5.93;;;;;;;18.61;nan;99394.84;4990938;28;20467;-72
2022/06/16 02:24:08;;;;;;;7.60;7.00;;;;;;;18.51;nan;99395.75;4987353;28;20530;-72
2022/06/16 02:26:35;;;;;;;7.60;6.80;;;;;;;18.42;nan;99388.69;4988019;28;21028;-71
2022/06/16 02:29:29;;;;;;;8.00;7.20;;;;;;;18.32;nan;99387.94;4988356;28;20794;-71
2022/06/16 02:32:37;;;;;;;10.33;7.17;;;;;;;18.29;nan;99397.06;4987433;28;20455;-72
2022/06/16 02:35:26;;;;;;;7.80;7.10;;;;;;;18.34;nan;99393.94;4990331;28;20516;-72
2022/06/16 02:38:29;;;;;;;13.17;7.50;;;;;;;18.43;nan;99400.16;5017248;28;20445;-72
2022/06/16 02:41:26;;;;;;;7.53;6.60;;;;;;;18.51;nan;99400.25;5015696;28;20450;-72
2022/06/16 02:44:18;;;;;;;14.37;6.70;;;;;;;18.53;nan;99395.59;5028769;23;21069;-80
2022/06/16 02:46:59;;;;;;;9.03;6.77;;;;;;;18.53;nan;99390.28;4965527;28;20490;-75
2022/06/16 02:49:32;;;;;;;7.40;6.70;;;;;;;18.51;nan;99389.59;4976138;28;20480;-76
2022/06/16 02:52:08;;;;;;;7.27;5.87;;;;;;;18.52;nan;99388.59;4973876;28;20440;-75
2022/06/16 02:54:53;;;;;;;8.20;6.20;;;;;;;18.55;nan;99385.63;4985076;28;20477;-76
2022/06/16 02:57:46;;;;;;;7.73;6.60;;;;;;;18.58;nan;99386.19;4986040;28;20445;-75
2022/06/16 03:00:18;;;;;;;8.20;7.07;;;;;;;18.50;nan;99382.63;4986131;28;20489;-75
2022/06/16 03:02:44;;;;;;;7.63;6.73;;;;;;;18.39;nan;99389.00;4986680;28;20965;-75
2022/06/16 03:05:13;;;;;;;11.53;6.77;;;;;;;18.32;nan;99393.25;5013015;28;20486;-80
2022/06/16 03:07:38;;;;;;;12.40;7.30;;;;;;;18.18;nan;99391.97;4989862;28;20236;-76
2022/06/16 03:13:08;;;;;;;8.20;7.37;;;;;;;17.94;nan;99408.50;4996045;28;20467;-75
2022/06/16 03:15:33;;;;;;;7.70;6.97;;;;;;;17.77;nan;99407.47;4996349;28;20453;-75
2022/06/16 03:17:59;;;;;;;8.33;7.63;;;;;;;17.68;nan;99408.34;5004252;28;20623;-76
2022/06/16 03:20:24;;;;;;;8.23;7.53;;;;;;;17.68;nan;99401.19;5031927;28;20199;-76
2022/06/16 03:22:50;;;;;;;9.27;6.43;;;;;;;17.66;nan;99405.84;4998894;28;20265;-75
2022/06/16 03:25:16;;;;;;;7.87;7.07;;;;;;;17.66;nan;99400.53;5002965;28;20263;-78
2022/06/16 03:27:41;;;;;;;7.07;6.37;;;;;;;17.68;nan;99398.53;4997583;28;20997;-75
2022/06/16 03:30:08;;;;;;;9.90;7.87;;;;;;;17.73;nan;99403.41;4995444;28;20299;-77
2022/06/16 03:32:33;;;;;;;6.70;6.00;;;;;;;17.78;nan;99417.09;5010110;28;20791;-76
2022/06/16 03:34:58;;;;;;;8.50;7.63;;;;;;;17.81;nan;99422.13;5010194;28;20482;-76
2022/06/16 03:37:27;;;;;;;8.40;7.57;;;;;;;17.84;nan;99419.19;4999199;28;20460;-82
2022/06/16 03:39:56;;;;;;;7.07;6.40;;;;;;;17.88;nan;99430.38;5013003;28;20497;-76
2022/06/16 03:42:22;;;;;;;9.77;7.20;;;;;;;17.90;nan;99420.41;5000093;28;20490;-76
2022/06/16 03:44:49;;;;;;;7.10;6.40;;;;;;;17.87;nan;99418.03;4992049;28;20338;-79
2022/06/16 03:47:16;;;;;;;7.33;6.63;;;;;;;17.85;nan;99418.22;4992743;28;21253;-79
2022/06/16 03:49:42;;;;;;;10.47;7.27;;;;;;;17.86;nan;99427.00;4995011;28;20925;-76
2022/06/16 03:52:08;;;;;;;9.53;6.53;;;;;;;17.91;nan;99430.06;4995635;28;20450;-77
2022/06/16 03:54:35;;;;;;;7.67;6.90;;;;;;;18.00;nan;99434.47;5010069;28;20227;-76
2022/06/16 03:57:05;;;;;;;7.90;7.10;;;;;;;18.10;nan;99434.41;5034584;28;20483;-76
2022/06/16 03:59:30;;;;;;;7.70;6.80;;;;;;;18.17;nan;99443.44;5017001;28;20451;-77
2022/06/16 04:02:02;;;;;;;8.07;7.37;;;;;;;18.23;nan;99442.88;5006043;28;20448;-76
2022/06/16 04:04:32;;;;;;;9.37;6.77;;;;;;;18.31;nan;99450.94;4994997;28;20476;-76
2022/06/16 04:07:00;;;;;;;11.13;7.60;;;;;;;18.35;nan;99452.28;4995167;28;20510;-75
2022/06/16 04:09:27;;;;;;;8.43;6.43;;;;;;;18.41;nan;99452.66;4997320;28;20472;-77
2022/06/16 04:11:57;;;;;;;7.57;6.87;;;;;;;18.48;nan;99459.06;4995823;28;20460;-76
2022/06/16 04:14:22;;;;;;;7.33;6.73;;;;;;;18.52;nan;99457.75;5005901;28;20986;-75
2022/06/16 04:17:00;;;;;;;7.53;6.73;;;;;;;18.51;nan;99454.25;5001591;28;20439;-76
2022/06/16 04:19:31;;;;;;;9.20;6.63;;;;;;;18.51;nan;99451.59;4994621;28;20441;-76
2022/06/16 04:21:57;;;;;;;7.73;7.03;;;;;;;18.52;nan;99455.09;4995389;28;20562;-79
2022/06/16 04:24:57;;;;;;;7.50;6.80;;;;;;;18.53;nan;99462.94;4996294;28;20457;-78
2022/06/16 04:27:24;;;;;;;10.37;6.70;;;;;;;18.55;nan;99460.97;5017128;28;20492;-76
2022/06/16 04:29:51;;;;;;;8.50;6.90;;;;;;;18.61;nan;99456.03;4994031;28;20448;-79
2022/06/16 04:32:44;;;;;;;7.97;7.18;;;;;;;18.71;nan;99454.09;4997928;28;20844;-75
2022/06/16 04:35:17;;;;;;;7.00;5.90;;;;;;;18.83;nan;99452.91;5013607;28;20206;-75
2022/06/16 04:38:04;;;;;;;7.07;6.37;;;;;;;18.95;nan;99464.13;4978660;28;20493;-76
2022/06/16 04:40:33;;;;;;;6.57;5.97;;;;;;;19.05;nan;99467.53;4996378;28;20454;-75
2022/06/16 04:43:40;;;;;;;6.77;6.17;;;;;;;19.21;nan;99466.81;4993201;28;21006;-76
2022/06/16 04:46:06;;;;;;;6.70;6.10;;;;;;;19.42;nan;99466.47;4993584;28;20503;-76
2022/06/16 04:48:37;;;;;;;7.10;6.40;;;;;;;19.80;nan;99459.84;4993471;28;20470;-76
2022/06/16 04:51:09;;;;;;;8.20;6.00;;;;;;;20.29;nan;99462.66;4992188;28;20951;-79
2022/06/16 04:53:34;;;;;;;6.90;6.20;;;;;;;20.76;nan;99456.72;4993481;28;20942;-76
2022/06/16 04:56:08;;;;;;;7.57;6.97;;;;;;;21.25;nan;99447.81;4994709;28;20442;-76
2022/06/16 04:58:44;;;;;;;6.97;6.23;;;;;;;21.71;nan;99450.75;4993413;28;20932;-80
2022/06/16 05:01:38;;;;;;;6.83;6.20;;;;;;;22.15;nan;99441.34;5004790;28;20580;-78
2022/06/16 05:04:03;;;;;;;6.53;5.93;;;;;;;22.53;nan;99452.97;5015264;28;20440;-76
2022/06/16 05:06:42;;;;;;;6.53;5.83;;;;;;;22.82;nan;99467.47;4999814;28;20193;-78
2022/06/16 05:09:17;;;;;;;8.33;5.57;;;;;;;23.02;nan;99459.81;4988769;28;20453;-75
2022/06/16 05:12:05;;;;;;;7.10;6.40;;;;;;;23.40;nan;99461.41;4972153;28;20453;-80
2022/06/16 05:14:48;;;;;;;6.13;5.63;;;;;;;23.82;nan;99459.16;4988250;28;20476;-77
2022/06/16 05:17:31;;;;;;;5.80;5.30;;;;;;;23.84;nan;99475.84;4990943;28;20512;-76
2022/06/16 05:20:17;;;;;;;6.90;5.87;;;;;;;23.55;nan;99477.53;5009122;28;20431;-81
2022/06/16 05:22:49;;;;;;;9.70;6.40;;;;;;;23.15;nan;99479.59;5008925;28;20450;-80
2022/06/16 05:25:50;;;;;;;7.33;6.47;;;;;;;23.01;nan;99477.72;4990736;28;20501;-76
2022/06/16 05:28:39;;;;;;;6.57;5.87;;;;;;;22.99;nan;99486.97;5007556;28;20520;-76
2022/06/16 05:31:07;;;;;;;6.50;6.00;;;;;;;22.89;nan;99485.31;4989473;28;21239;-76
2022/06/16 05:33:35;;;;;;;7.75;7.05;;;;;;;22.81;nan;99497.94;4989054;28;20461;-82
2022/06/16 05:36:19;;;;;;;6.20;5.53;;;;;;;22.68;nan;99496.72;5008552;28;20249;-76
2022/06/16 05:38:56;;;;;;;6.50;5.50;;;;;;;22.68;nan;99499.41;4990926;28;20823;-76
2022/06/16 05:41:32;;;;;;;6.90;6.30;;;;;;;22.83;nan;99498.59;4990717;28;20482;-81
2022/06/16 05:44:00;;;;;;;9.00;6.63;;;;;;;22.80;nan;99499.81;5007818;28;20585;-77
2022/06/16 05:46:44;;;;;;;7.27;5.73;;;;;;;22.92;nan;99517.09;5007484;28;20984;-79
2022/06/16 05:49:15;;;;;;;5.70;5.20;;;;;;;22.87;nan;99516.81;5006914;28;20447;-81
2022/06/16 05:51:42;;;;;;;6.83;5.97;;;;;;;22.94;nan;99514.25;4990147;28;20254;-78
2022/06/16 05:54:10;;;;;;;8.40;6.10;;;;;;;23.01;nan;99520.59;4991347;28;20497;-78
2022/06/16 05:56:38;;;;;;;7.80;6.67;;;;;;;22.92;nan;99522.44;4989797;28;20468;-76
2022/06/16 05:59:05;;;;;;;7.00;6.40;;;;;;;22.88;nan;99531.03;4990516;28;20443;-77
2022/06/16 06:01:32;;;;;;;7.07;6.37;;;;;;;23.06;nan;99531.59;5008961;28;20468;-77
2022/06/16 06:04:03;;;;;;;6.40;5.80;;;;;;;23.46;nan;99534.09;5009105;28;20455;-76
2022/06/16 06:06:30;;;;;;;9.33;6.40;;;;;;;23.64;nan;99537.25;4990920;28;21236;-80
2022/06/16 06:17:19;;;;;;;7.77;6.90;;;;;;;23.32;nan;99558.00;5008905;28;20446;-80
2022/06/16 06:19:47;;;;;;;6.93;6.40;;;;;;;23.23;nan;99558.25;4990795;28;20458;-80
2022/06/16 06:22:16;;;;;;;6.70;6.20;;;;;;;23.15;nan;99567.19;4991432;28;20462;-77
2022/06/16 06:24:47;;;;;;;9.53;6.93;;;;;;;23.14;nan;99569.06;4989523;28;20221;-77
2022/06/16 06:27:26;;;;;;;7.00;5.93;;;;;;;23.19;nan;99566.63;4990321;28;20483;-77
2022/06/16 06:29:52;;;;;;;5.50;5.10;;;;;;;23.18;nan;99577.56;5007824;28;20957;-78
2022/06/16 06:32:20;;;;;;;7.20;6.60;;;;;;;23.22;nan;99569.97;5003867;28;20489;-78
2022/06/16 06:34:46;;;;;;;6.70;6.10;;;;;;;23.29;nan;99565.56;4989810;28;20997;-80
2022/06/16 06:37:14;;;;;;;6.60;6.10;;;;;;;23.53;nan;99562.66;4988636;28;20435;-77
2022/06/16 06:39:40;;;;;;;5.83;5.33;;;;;;;23.95;nan;99565.78;4989003;28;20201;-78
2022/06/16 06:42:06;;;;;;;7.60;6.80;;;;;;;24.33;nan;99571.00;5007243;28;20446;-77
2022/06/16 06:44:34;;;;;;;9.80;6.20;;;;;;;24.82;nan;99570.38;4989607;28;20542;-77
2022/06/16 06:47:00;;;;;;;8.83;5.53;;;;;;;25.63;nan;99572.75;5012446;28;20504;-82
2022/06/16 06:49:26;;;;;;;8.00;6.60;;;;;;;26.44;nan;99567.66;4994477;28;20677;-78
2022/06/16 06:51:51;;;;;;;6.47;5.37;;;;;;;27.20;nan;99570.16;5011151;28;20443;-78
2022/06/16 06:54:18;;;;;;;6.33;5.83;;;;;;;27.68;nan;99559.13;5011185;28;20595;-77
2022/06/16 06:56:44;;;;;;;6.37;5.80;;;;;;;27.81;nan;99561.00;5009455;28;20216;-79
2022/06/16 06:59:18;;;;;;;7.17;6.07;;;;;;;27.77;nan;99567.84;5010405;28;20455;-82
2022/06/16 07:01:45;;;;;;;6.50;5.90;;;;;;;27.75;nan;99570.72;5012271;28;20538;-80
2022/06/16 07:04:11;;;;;;;6.57;5.97;;;;;;;27.85;nan;99574.91;5017904;28;20462;-77
2022/06/16 07:06:38;;;;;;;7.07;6.37;;;;;;;28.02;nan;99582.31;5019241;28;20462;-77
2022/06/16 07:09:04;;;;;;;7.57;6.80;;;;;;;28.08;nan;99579.81;5010031;28;20263;-78
2022/06/16 07:11:29;;;;;;;7.37;6.67;;;;;;;28.41;nan;99585.94;5009423;28;20439;-77
2022/06/16 07:13:54;;;;;;;12.50;6.33;;;;;;;28.72;nan;99575.44;5009318;28;20844;-80
2022/06/16 07:16:21;;;;;;;6.70;6.10;;;;;;;28.65;nan;99575.47;5009847;28;20726;-77
2022/06/16 07:18:48;;;;;;;8.07;6.47;;;;;;;28.79;nan;99577.06;5008528;28;20425;-78
2022/06/16 07:21:15;;;;;;;9.17;6.10;;;;;;;29.25;nan;99584.06;5009267;28;20444;-77
2022/06/16 07:23:41;;;;;;;7.50;6.03;;;;;;;29.55;nan;99592.34;5008472;28;20524;-77
2022/06/16 07:26:07;;;;;;;7.17;5.70;;;;;;;29.71;nan;99595.56;4990564;28;20440;-79
2022/06/16 07:28:33;;;;;;;7.70;5.80;;;;;;;30.09;nan;99584.53;5009500;28;20470;-77
2022/06/16 07:30:58;;;;;;;6.40;5.70;;;;;;;30.06;nan;99600.41;5009362;28;20945;-77
2022/06/16 07:33:24;;;;;;;7.20;5.83;;;;;;;29.46;nan;99600.94;4998885;28;20236;-77
2022/06/16 07:35:52;;;;;;;6.77;6.07;;;;;;;29.14;nan;99606.41;5008499;28;20202;-77
2022/06/16 07:38:18;;;;;;;7.20;6.43;;;;;;;29.53;nan;99607.13;5008629;28;20230;-80
2022/06/16 07:40:43;;;;;;;7.40;5.53;;;;;;;29.62;nan;99603.09;5008876;28;20479;-78
2022/06/16 07:43:09;;;;;;;6.90;6.30;;;;;;;29.41;nan;99603.47;5007966;28;20481;-78
2022/06/16 07:45:35;;;;;;;6.50;5.90;;;;;;;29.48;nan;99604.25;4991147;28;20205;-78
2022/06/16 07:48:02;;;;;;;7.33;6.53;;;;;;;29.86;nan;99600.63;5008519;28;20232;-77
2022/06/16 07:50:28;;;;;;;6.73;6.13;;;;;;;30.29;nan;99602.47;5008651;28;21029;-79
2022/06/16 07:52:54;;;;;;;6.90;6.20;;;;;;;30.82;nan;99601.81;5008750;28;20476;-77
2022/06/16 07:55:20;;;;;;;7.10;5.97;;;;;;;31.17;nan;99592.97;5007881;28;20755;-77
2022/06/16 07:57:49;;;;;;;6.83;6.03;;;;;;;31.46;nan;99586.66;5008278;28;20196;-78
2022/06/16 08:00:22;;;;;;;7.30;5.80;;;;;;;31.57;nan;99586.88;4990796;28;20446;-77
2022/06/16 08:02:47;;;;;;;8.57;6.50;;;;;;;31.37;nan;99592.66;5008790;28;20444;-78
2022/06/16 08:05:13;;;;;;;8.53;6.03;;;;;;;31.08;nan;99596.03;5005966;28;21139;-79
2022/06/16 08:07:41;;;;;;;8.53;6.37;;;;;;;31.17;nan;99598.41;5007820;28;20713;-77
2022/06/16 08:10:09;;;;;;;7.70;6.47;;;;;;;31.20;nan;99598.75;5007114;28;20990;-77
2022/06/16 08:12:34;;;;;;;8.03;5.50;;;;;;;31.21;nan;99605.00;5007467;28;20446;-79
2022/06/16 08:15:00;;;;;;;9.50;5.70;;;;;;;31.18;nan;99608.19;5008821;28;20536;-78
2022/06/16 08:17:32;;;;;;;6.40;5.90;;;;;;;31.27;nan;99606.78;5024570;22;20241;-87
2022/06/16 08:19:59;;;;;;;6.43;5.80;;;;;;;31.35;nan;99613.75;4986876;28;20638;-89
2022/06/16 08:22:28;;;;;;;8.00;6.10;;;;;;;31.45;nan;99611.31;4992692;28;20924;-89
2022/06/16 08:24:55;;;;;;;6.43;5.80;;;;;;;31.53;nan;99624.56;4992890;28;20498;-89
2022/06/16 08:27:24;;;;;;;5.90;5.23;;;;;;;31.75;nan;99628.34;4991975;28;20689;-89
2022/06/16 08:29:50;;;;;;;10.67;6.40;;;;;;;31.67;nan;99634.13;4974042;28;20456;-88
2022/06/16 08:32:21;;;;;;;6.43;5.20;;;;;;;31.63;nan;99618.56;4986534;28;20456;-88
2022/06/16 08:34:47;;;;;;;6.53;5.80;;;;;;;31.25;nan;99638.75;5003741;28;20479;-88
2022/06/16 08:37:16;;;;;;;6.20;5.30;;;;;;;31.01;nan;99635.16;5006401;28;20448;-89
2022/06/16 08:39:45;;;;;;;5.57;5.03;;;;;;;30.97;nan;99640.19;5007238;28;20467;-88
2022/06/16 08:42:22;;;;;;;5.97;5.23;;;;;;;31.03;nan;99641.19;4989527;28;20459;-88
2022/06/16 08:44:53;;;;;;;7.30;5.77;;;;;;;31.01;nan;99644.09;4971329;28;20460;-91
2022/06/16 08:47:22;;;;;;;6.30;4.80;;;;;;;31.03;nan;99649.31;5005152;28;20502;-90
2022/06/16 08:49:59;;;;;;;6.37;5.70;;;;;;;31.17;nan;99641.81;5008373;28;20435;-91
2022/06/16 08:52:46;;;;;;;7.87;4.93;;;;;;;31.17;nan;99639.09;5010514;28;20523;-91
2022/06/16 08:55:32;;;;;;;5.70;5.30;;;;;;;31.35;nan;99636.28;5006661;28;20531;-88
2022/06/16 08:58:44;;;;;;;8.33;5.33;;;;;;;31.77;nan;99644.41;5007517;28;20985;-91
2022/06/16 09:01:23;;;;;;;4.60;4.10;;;;;;;32.02;nan;99643.38;5008073;28;20533;-89
2022/06/16 09:03:56;;;;;;;6.53;5.10;;;;;;;32.36;nan;99647.94;5006533;28;20484;-89
2022/06/16 09:06:47;;;;;;;6.53;4.90;;;;;;;32.47;nan;99643.56;4970818;28;20201;-90
2022/06/16 09:12:44;;;;;;;5.73;5.20;;;;;;;32.63;nan;99647.44;4998964;28;20451;-89
2022/06/16 09:15:29;;;;;;;5.03;3.87;;;;;;;32.79;nan;99643.94;5009831;28;20513;-90
2022/06/16 09:18:31;;;;;;;4.27;3.47;;;;;;;32.79;nan;99648.56;5016572;28;20478;-91
2022/06/16 09:21:19;;;;;;;4.50;4.03;;;;;;;32.73;nan;99650.38;5019574;28;20510;-89
2022/06/16 09:24:02;;;;;;;4.27;3.90;;;;;;;32.50;nan;99647.72;5002080;28;20960;-89
2022/06/16 09:26:39;;;;;;;4.10;3.70;;;;;;;32.08;nan;99651.41;5010084;28;20533;-90
2022/06/16 09:29:17;;;;;;;4.10;3.33;;;;;;;31.75;nan;99657.38;5005741;28;20839;-87
2022/06/16 09:32:06;;;;;;;4.33;3.83;;;;;;;31.82;nan;99658.13;5007233;28;20447;-89
2022/06/16 09:34:45;;;;;;;5.93;5.03;;;;;;;32.07;nan;99663.34;5006454;28;20946;-88
2022/06/16 09:37:24;;;;;;;9.07;7.70;;;;;;;32.05;nan;99665.44;5009468;28;20477;-89
2022/06/16 09:40:15;;;;;;;6.20;4.40;;;;;;;32.26;nan;99664.03;5005267;28;20454;-87
2022/06/16 09:42:57;;;;;;;4.20;3.87;;;;;;;32.45;nan;99666.59;5007887;28;20448;-90
2022/06/16 09:45:36;;;;;;;4.27;3.87;;;;;;;32.62;nan;99667.53;5013022;28;20459;-89
2022/06/16 09:48:15;;;;;;;4.97;3.77;;;;;;;32.85;nan;99661.19;4987667;28;20475;-88
2022/06/16 09:51:05;;;;;;;3.90;3.60;;;;;;;32.95;nan;99660.56;5009252;28;20435;-89
2022/06/16 09:54:03;;;;;;;4.78;4.28;;;;;;;33.14;nan;99662.06;5006539;28;20521;-90
2022/06/16 09:56:38;;;;;;;4.73;4.23;;;;;;;33.34;nan;99666.19;5012325;28;20283;-90
2022/06/16 09:59:11;;;;;;;4.47;4.07;;;;;;;33.48;nan;99664.81;5006504;28;20485;-90
2022/06/16 10:01:59;;;;;;;5.60;5.10;;;;;;;33.37;nan;99669.25;5006466;28;20446;-87
2022/06/16 10:04:25;;;;;;;4.37;4.07;;;;;;;33.07;nan;99669.53;5005373;28;20601;-89
2022/06/16 10:07:15;;;;;;;4.57;3.83;;;;;;;32.98;nan;99662.81;5004423;28;20534;-88
2022/06/16 10:10:08;;;;;;;5.50;3.93;;;;;;;32.91;nan;99662.13;5004315;28;20187;-88
2022/06/16 10:12:51;;;;;;;4.20;3.90;;;;;;;32.94;nan;99670.59;5005648;28;20447;-87
2022/06/16 10:15:31;;;;;;;4.23;3.93;;;;;;;32.89;nan;99669.69;5006793;28;20449;-89
2022/06/16 10:17:58;;;;;;;5.67;4.20;;;;;;;32.71;nan;99671.53;4989029;28;20481;-89
2022/06/16 10:20:27;;;;;;;4.03;3.73;;;;;;;32.72;nan;99675.91;5005625;28;20471;-89
2022/06/16 10:23:05;;;;;;;6.30;4.13;;;;;;;32.79;nan;99673.88;4988396;28;21178;-90
2022/06/16 10:25:44;;;;;;;4.57;3.67;;;;;;;33.03;nan;99677.38;5005939;28;20447;-89
2022/06/16 10:28:30;;;;;;;4.67;3.90;;;;;;;33.29;nan;99677.81;5005956;28;21101;-91
2022/06/16 10:30:58;;;;;;;4.80;4.07;;;;;;;33.25;nan;99685.66;5005521;28;20474;-90
2022/06/16 10:33:33;;;;;;;4.60;3.87;;;;;;;32.99;nan;99675.31;5007789;28;20889;-88
2022/06/16 10:36:23;;;;;;;5.83;3.80;;;;;;;32.77;nan;99681.44;4986850;28;20861;-89
2022/06/16 10:39:10;;;;;;;5.93;3.80;;;;;;;32.83;nan;99676.94;5010590;28;20571;-88
2022/06/16 10:41:58;;;;;;;4.80;4.30;;;;;;;33.00;nan;99680.56;5010871;28;20450;-90
2022/06/16 10:44:30;;;;;;;3.93;3.60;;;;;;;33.13;nan;99687.59;5006876;28;20544;-89
2022/06/16 10:47:00;;;;;;;5.37;4.00;;;;;;;33.30;nan;99687.66;4989786;28;20967;-89
2022/06/16 10:49:33;;;;;;;4.77;4.33;;;;;;;33.40;nan;99687.00;5008230;28;20462;-88
2022/06/16 10:52:14;;;;;;;6.10;4.03;;;;;;;33.03;nan;99681.97;5019331;28;20443;-88
2022/06/16 10:55:06;;;;;;;;;;;;;;;;;;;;;
2022/06/16 10:57:40;;;;;;;4.43;4.03;;;;;;;33.06;nan;99676.06;5025976;28;21152;-89
2022/06/16 11:00:19;;;;;;;8.20;4.20;;;;;;;33.15;nan;99684.66;5026598;23;20497;-74
2022/06/16 11:02:59;;;;;;;4.43;4.03;;;;;;;33.14;nan;99688.44;4966839;28;20445;-73
2022/06/16 11:05:27;;;;;;;4.20;3.70;;;;;;;33.15;nan;99696.34;4985160;28;20471;-73
2022/06/16 11:07:53;;;;;;;4.33;3.93;;;;;;;33.17;nan;99691.50;4985363;28;20516;-73
2022/06/16 11:10:34;;;;;;;4.33;3.87;;;;;;;33.21;nan;99686.38;4986012;28;20484;-72
2022/06/16 11:13:00;;;;;;;4.20;3.80;;;;;;;33.23;nan;99689.69;4985246;28;20274;-73
2022/06/16 11:15:29;;;;;;;3.93;3.63;;;;;;;33.31;nan;99678.41;4985344;28;20464;-72
2022/06/16 11:17:58;;;;;;;4.17;3.87;;;;;;;33.08;nan;99682.09;4985288;28;20187;-73
2022/06/16 11:20:34;;;;;;;4.37;3.97;;;;;;;32.63;nan;99687.41;4984699;28;20448;-73
2022/06/16 11:23:00;;;;;;;5.97;4.40;;;;;;;32.37;nan;99689.53;4985602;28;20964;-73
2022/06/16 11:25:33;;;;;;;4.60;4.20;;;;;;;32.20;nan;99689.44;4984774;28;21292;-73
2022/06/16 11:28:12;;;;;;;6.83;4.10;;;;;;;31.99;nan;99687.31;4984849;28;20563;-73
2022/06/16 11:30:47;;;;;;;4.50;3.63;;;;;;;31.94;nan;99691.56;4986863;28;20452;-73
2022/06/16 11:36:30;;;;;;;4.67;3.97;;;;;;;32.15;nan;99689.31;4989300;28;20973;-73
2022/06/16 11:39:04;;;;;;;4.70;4.30;;;;;;;32.06;nan;99685.31;4989287;28;20436;-73
2022/06/16 11:41:32;;;;;;;4.83;4.43;;;;;;;31.98;nan;99677.53;4988489;28;20475;-73
2022/06/16 11:44:21;;;;;;;4.00;3.60;;;;;;;31.88;nan;99681.59;4989155;28;20459;-73
2022/06/16 11:47:15;;;;;;;5.80;4.27;;;;;;;31.83;nan;99683.38;4970189;28;20471;-73
2022/06/16 11:49:49;;;;;;;4.30;4.00;;;;;;;31.80;nan;99679.25;4989156;28;20543;-73
2022/06/16 11:53:05;;;;;;;6.63;4.83;;;;;;;31.67;nan;99690.31;4989218;28;20546;-73
2022/06/16 11:55:38;;;;;;;7.30;4.90;;;;;;;31.58;nan;99684.41;4954742;28;20460;-73
2022/06/16 11:58:28;;;;;;;4.90;4.20;;;;;;;31.75;nan;99684.56;4988383;28;20649;-74
2022/06/16 12:01:11;;;;;;;4.10;3.80;;;;;;;31.99;nan;99676.44;4947450;28;20490;-72
2022/06/16 12:04:01;;;;;;;5.23;4.40;;;;;;;31.93;nan;99676.34;4931015;29;20483;-72
2022/06/16 12:06:32;;;;;;;4.80;4.40;;;;;;;31.79;nan;99677.59;4930363;29;20458;-72
2022/06/16 12:09:30;;;;;;;5.00;4.40;;;;;;;31.88;nan;99689.75;4930669;29;20505;-72
2022/06/16 12:12:12;;;;;;;5.00;3.90;;;;;;;31.99;nan;99685.44;4930683;29;20451;-74
2022/06/16 12:15:06;;;;;;;4.83;4.37;;;;;;;32.06;nan;99686.16;4930629;29;20932;-73
2022/06/16 12:18:02;;;;;;;4.07;3.70;;;;;;;32.15;nan;99683.91;4931087;29;20447;-73
2022/06/16 12:20:38;;;;;;;5.67;3.53;;;;;;;32.25;nan;99686.03;4931428;29;20474;-72
2022/06/16 12:23:24;;;;;;;4.23;3.83;;;;;;;32.38;nan;99675.72;4931442;29;20465;-74
2022/06/16 12:26:16;;;;;;;4.50;4.20;;;;;;;32.48;nan;99677.84;4930313;29;20978;-72
2022/06/16 12:29:08;;;;;;;7.23;4.50;;;;;;;32.34;nan;99671.81;4929749;29;20482;-74
2022/06/16 12:31:56;;;;;;;4.50;4.20;;;;;;;31.98;nan;99669.38;4930685;29;20857;-74
2022/06/16 12:34:27;;;;;;;4.83;4.30;;;;;;;31.70;nan;99673.56;4925948;29;20478;-72
2022/06/16 12:36:59;;;;;;;5.53;5.00;;;;;;;31.59;nan;99666.22;4930360;29;20451;-73
2022/06/16 12:39:45;;;;;;;6.90;4.70;;;;;;;31.70;nan;99668.97;4930469;29;20968;-73
2022/06/16 12:42:15;;;;;;;5.07;4.57;;;;;;;31.85;nan;99665.78;4931918;29;20836;-74
2022/06/16 12:44:54;;;;;;;4.30;4.00;;;;;;;32.03;nan;99664.03;4929528;29;20490;-75
2022/06/16 12:47:27;;;;;;;4.00;3.60;;;;;;;32.13;nan;99665.09;4933949;29;20618;-74
2022/06/16 12:50:04;;;;;;;4.50;4.10;;;;;;;32.17;nan;99663.56;4931304;29;20482;-74